createdAt,value
2017-10-17T00:00:08.173Z,20.30
2017-10-17T00:02:39.577Z,24.40
2017-10-17T00:05:10.882Z,17.73
2017-10-17T00:07:42.131Z,19.33
2017-10-17T00:10:13.486Z,19.97
2017-10-17T00:12:44.158Z,27.13
2017-10-17T00:15:15.469Z,20.80
2017-10-17T00:17:47.386Z,19.30
2017-10-17T00:20:19.359Z,16.90
2017-10-17T00:22:50.214Z,20.47
2017-10-17T00:25:21.825Z,28.17
2017-10-17T00:27:52.474Z,22.10
2017-10-17T00:30:24.414Z,23.77
2017-10-17T00:32:55.233Z,25.33
2017-10-17T00:35:29.852Z,25.47
2017-10-17T00:38:04.197Z,21.97
2017-10-17T00:40:35.957Z,23.10
2017-10-17T00:43:08.066Z,24.37
2017-10-17T00:45:39.721Z,21.07
2017-10-17T00:48:11.367Z,25.93
2017-10-17T00:50:42.954Z,20.07
2017-10-17T00:53:14.919Z,20.07
2017-10-17T00:55:45.287Z,18.67
2017-10-17T00:58:26.112Z,24.43
2017-10-17T01:01:01.130Z,21.47
2017-10-17T01:03:33.156Z,22.40
2017-10-17T01:06:03.847Z,20.23
2017-10-17T01:08:34.917Z,18.37
2017-10-17T01:11:06.081Z,24.70
2017-10-17T01:13:36.213Z,17.43
2017-10-17T01:16:05.974Z,16.97
2017-10-17T01:18:35.913Z,19.67
2017-10-17T01:21:08.914Z,23.27
2017-10-17T01:23:48.549Z,22.43
2017-10-17T01:26:20.657Z,18.43
2017-10-17T01:28:52.177Z,17.13
2017-10-17T01:31:21.772Z,17.57
2017-10-17T01:33:51.288Z,15.43
2017-10-17T01:36:21.194Z,15.00
2017-10-17T01:39:01.172Z,16.53
2017-10-17T01:41:31.346Z,17.83
2017-10-17T01:44:04.281Z,19.13
2017-10-17T01:46:49.914Z,23.13
2017-10-17T01:49:23.828Z,24.73
2017-10-17T01:51:54.215Z,22.40
2017-10-17T01:54:24.405Z,20.13
2017-10-17T01:56:54.419Z,16.73
2017-10-17T01:59:26.348Z,17.63
2017-10-17T02:01:55.890Z,16.17
2017-10-17T02:04:25.492Z,16.33
2017-10-17T02:06:55.041Z,20.10
2017-10-17T02:09:24.684Z,16.43
2017-10-17T02:11:54.565Z,16.30
2017-10-17T02:14:24.787Z,22.03
2017-10-17T02:16:54.978Z,22.93
2017-10-17T02:19:24.755Z,15.80
2017-10-17T02:21:57.874Z,19.97
2017-10-17T02:24:43.285Z,17.03
2017-10-17T02:27:12.879Z,23.97
2017-10-17T02:29:43.363Z,21.60
2017-10-17T02:32:12.983Z,18.90
2017-10-17T02:34:44.148Z,20.53
2017-10-17T02:37:14.191Z,21.17
2017-10-17T02:39:44.359Z,23.00
2017-10-17T02:42:14.409Z,27.20
2017-10-17T02:44:44.321Z,21.43
2017-10-17T02:47:14.437Z,20.03
2017-10-17T02:49:44.546Z,22.00
2017-10-17T02:52:15.024Z,18.47
2017-10-17T02:54:45.134Z,18.63
2017-10-17T02:57:15.178Z,20.30
2017-10-17T02:59:45.273Z,21.20
2017-10-17T03:02:27.667Z,20.50
2017-10-17T03:04:57.224Z,22.67
2017-10-17T03:07:26.781Z,19.23
2017-10-17T03:09:56.327Z,22.97
2017-10-17T03:12:25.882Z,25.27
2017-10-17T03:14:56.886Z,19.57
2017-10-17T03:17:26.458Z,17.17
2017-10-17T03:19:56.088Z,20.83
2017-10-17T03:22:26.198Z,20.93
2017-10-17T03:24:58.165Z,27.93
2017-10-17T03:27:27.704Z,22.00
2017-10-17T03:29:57.276Z,23.13
2017-10-17T03:32:26.830Z,19.77
2017-10-17T03:34:58.361Z,25.33
2017-10-17T03:37:43.586Z,21.60
2017-10-17T03:40:14.240Z,20.20
2017-10-17T03:42:43.847Z,21.23
2017-10-17T03:45:19.934Z,23.03
2017-10-17T03:48:05.745Z,18.57
2017-10-17T03:50:36.302Z,20.67
2017-10-17T03:53:06.842Z,18.47
2017-10-17T03:55:36.790Z,18.30
2017-10-17T03:58:06.765Z,17.30
2017-10-17T04:00:36.902Z,20.77
2017-10-17T04:03:07.517Z,21.67
2017-10-17T04:05:39.926Z,24.57
2017-10-17T04:08:15.304Z,21.30
2017-10-17T04:10:45.207Z,18.53
2017-10-17T04:13:29.638Z,24.30
2017-10-17T04:16:00.361Z,23.63
2017-10-17T04:18:46.313Z,18.70
2017-10-17T04:21:29.745Z,22.00
2017-10-17T04:24:01.938Z,21.20
2017-10-17T04:26:34.324Z,22.27
2017-10-17T04:29:03.870Z,17.93
2017-10-17T04:31:43.331Z,21.20
2017-10-17T04:34:12.903Z,23.60
2017-10-17T04:36:42.547Z,23.90
2017-10-17T04:39:12.526Z,18.17
2017-10-17T04:41:49.574Z,23.50
2017-10-17T04:44:25.017Z,24.10
2017-10-17T04:46:57.765Z,19.40
2017-10-17T04:49:28.839Z,22.27
2017-10-17T04:51:58.380Z,19.37
2017-10-17T04:54:47.165Z,28.27
2017-10-17T04:57:17.689Z,24.47
2017-10-17T04:59:51.014Z,26.57
2017-10-17T05:02:23.545Z,21.17
2017-10-17T05:04:59.531Z,24.17
2017-10-17T05:07:29.110Z,28.40
2017-10-17T05:09:58.656Z,23.23
2017-10-17T05:12:31.010Z,21.00
2017-10-17T05:15:00.591Z,19.00
2017-10-17T05:17:33.168Z,23.83
2017-10-17T05:20:18.125Z,27.20
2017-10-17T05:22:48.239Z,24.23
2017-10-17T05:25:18.718Z,24.97
2017-10-17T05:28:03.533Z,23.47
2017-10-17T05:30:33.754Z,25.27
2017-10-17T05:33:09.642Z,24.53
2017-10-17T05:35:39.205Z,20.93
2017-10-17T05:38:08.748Z,28.20
2017-10-17T05:40:38.917Z,23.17
2017-10-17T05:43:09.810Z,32.40
2017-10-17T05:45:39.360Z,36.83
2017-10-17T05:48:09.004Z,28.10
2017-10-17T05:50:54.889Z,23.33
2017-10-17T05:53:24.449Z,25.03
2017-10-17T05:55:54.070Z,23.47
2017-10-17T05:58:24.181Z,32.07
2017-10-17T06:00:54.331Z,56.17
2017-10-17T06:03:25.707Z,24.03
2017-10-17T06:05:55.229Z,23.70
2017-10-17T06:08:24.774Z,26.40
2017-10-17T06:10:54.538Z,20.23
2017-10-17T06:13:24.535Z,21.17
2017-10-17T06:15:54.684Z,28.23
2017-10-17T06:18:24.642Z,19.10
2017-10-17T06:20:54.612Z,24.80
2017-10-17T06:23:26.235Z,21.57
2017-10-17T06:25:55.770Z,22.47
2017-10-17T06:28:25.311Z,21.33
2017-10-17T06:30:54.833Z,20.47
2017-10-17T06:33:24.871Z,23.17
2017-10-17T06:35:54.934Z,23.87
2017-10-17T06:38:24.989Z,28.03
2017-10-17T06:40:54.991Z,20.77
2017-10-17T06:43:25.749Z,21.90
2017-10-17T06:45:55.271Z,23.47
2017-10-17T06:48:25.050Z,23.60
2017-10-17T06:50:55.209Z,27.47
2017-10-17T06:53:25.205Z,18.60
2017-10-17T06:55:55.249Z,20.57
2017-10-17T06:58:25.365Z,25.30
2017-10-17T07:00:55.302Z,25.03
2017-10-17T07:03:26.925Z,24.80
2017-10-17T07:05:56.450Z,22.43
2017-10-17T07:08:25.987Z,27.17
2017-10-17T07:10:55.527Z,24.43
2017-10-17T07:13:25.643Z,17.53
2017-10-17T07:15:55.663Z,22.07
2017-10-17T07:18:25.766Z,23.97
2017-10-17T07:20:55.814Z,21.10
2017-10-17T07:23:25.911Z,24.37
2017-10-17T07:25:56.435Z,26.13
2017-10-17T07:28:25.965Z,20.23
2017-10-17T07:30:55.973Z,16.13
2017-10-17T07:33:25.975Z,16.80
2017-10-17T07:35:56.003Z,26.83
2017-10-17T07:38:26.068Z,20.63
2017-10-17T07:40:56.177Z,13.90
2017-10-17T07:43:26.262Z,22.60
2017-10-17T07:45:56.363Z,18.53
2017-10-17T07:48:26.280Z,20.37
2017-10-17T07:50:56.303Z,24.93
2017-10-17T07:53:26.338Z,23.17
2017-10-17T07:55:56.341Z,19.60
2017-10-17T07:58:26.382Z,24.70
2017-10-17T08:00:56.509Z,21.40
2017-10-17T08:03:26.498Z,22.33
2017-10-17T08:05:56.525Z,20.20
2017-10-17T08:08:26.571Z,22.43
2017-10-17T08:10:56.652Z,23.83
2017-10-17T08:13:26.775Z,17.93
2017-10-17T08:15:56.851Z,19.10
2017-10-17T08:18:26.815Z,21.77
2017-10-17T08:20:56.922Z,18.67
2017-10-17T08:23:27.046Z,20.67
2017-10-17T08:25:57.020Z,19.33
2017-10-17T08:28:27.081Z,17.43
2017-10-17T08:30:57.129Z,22.53
2017-10-17T08:33:27.115Z,20.63
2017-10-17T08:35:57.238Z,24.83
2017-10-17T08:38:27.255Z,18.20
2017-10-17T08:40:57.201Z,17.50
2017-10-17T08:43:27.235Z,20.60
2017-10-17T08:45:57.344Z,24.20
2017-10-17T08:48:27.446Z,20.43
2017-10-17T08:50:57.466Z,22.93
2017-10-17T08:53:27.475Z,16.20
2017-10-17T08:55:57.630Z,22.50
2017-10-17T08:58:27.634Z,21.20
2017-10-17T09:00:57.725Z,20.67
2017-10-17T09:03:27.861Z,14.00
2017-10-17T09:05:57.887Z,16.57
2017-10-17T09:08:27.993Z,18.47
2017-10-17T09:10:57.957Z,27.47
2017-10-17T09:13:28.001Z,24.80
2017-10-17T09:15:58.136Z,20.53
2017-10-17T09:18:28.158Z,17.73
2017-10-17T09:20:58.179Z,15.10
2017-10-17T09:23:28.307Z,27.30
2017-10-17T09:25:58.301Z,19.07
2017-10-17T09:28:28.335Z,19.23
2017-10-17T09:30:58.481Z,26.37
2017-10-17T09:33:28.295Z,21.10
2017-10-17T09:35:58.309Z,20.27
2017-10-17T09:38:28.332Z,21.63
2017-10-17T09:40:58.447Z,22.13
2017-10-17T09:43:28.477Z,19.53
2017-10-17T09:45:58.577Z,24.17
2017-10-17T09:48:28.611Z,26.47
2017-10-17T09:50:58.630Z,19.87
2017-10-17T09:53:29.362Z,23.20
2017-10-17T09:55:59.151Z,32.50
2017-10-17T09:58:29.268Z,16.10
2017-10-17T10:00:59.174Z,16.43
2017-10-17T10:03:29.569Z,20.83
2017-10-17T10:05:59.187Z,21.97
2017-10-17T10:08:29.273Z,12.53
2017-10-17T10:10:59.357Z,15.17
2017-10-17T10:13:29.262Z,15.17
2017-10-17T10:15:59.978Z,14.27
2017-10-17T10:18:30.940Z,11.90
2017-10-17T10:21:01.320Z,18.73
2017-10-17T10:23:32.487Z,18.33
2017-10-17T10:26:02.033Z,14.87
2017-10-17T10:28:32.018Z,14.17
2017-10-17T10:31:02.024Z,17.63
2017-10-17T10:33:31.572Z,14.77
2017-10-17T10:36:01.117Z,12.63
2017-10-17T10:38:30.649Z,15.03
2017-10-17T10:41:00.190Z,12.47
2017-10-17T10:43:30.078Z,12.00
2017-10-17T10:46:00.189Z,11.67
2017-10-17T10:48:30.228Z,9.83
2017-10-17T10:51:00.277Z,12.80
2017-10-17T10:53:30.370Z,14.60
2017-10-17T10:56:00.546Z,13.63
2017-10-17T10:58:30.470Z,11.33
2017-10-17T11:01:00.553Z,14.83
2017-10-17T11:03:30.541Z,14.83
2017-10-17T11:06:00.552Z,15.03
2017-10-17T11:08:30.657Z,16.90
2017-10-17T11:11:00.685Z,16.13
2017-10-17T11:13:30.694Z,11.13
2017-10-17T11:16:00.790Z,15.30
2017-10-17T11:18:30.787Z,18.50
2017-10-17T11:21:00.753Z,15.10
2017-10-17T11:23:30.878Z,13.93
2017-10-17T11:26:02.093Z,9.97
2017-10-17T11:28:31.936Z,11.83
2017-10-17T11:31:02.583Z,14.30
2017-10-17T11:33:34.415Z,12.20
2017-10-17T11:36:05.733Z,20.27
2017-10-17T11:38:37.112Z,16.77
2017-10-17T11:41:12.506Z,11.23
2017-10-17T11:43:47.860Z,18.33
2017-10-17T11:46:17.392Z,15.00
2017-10-17T11:48:46.920Z,12.03
2017-10-17T11:51:16.473Z,15.37
2017-10-17T11:53:46.559Z,15.37
2017-10-17T11:56:16.557Z,16.47
2017-10-17T11:58:46.591Z,10.27
2017-10-17T12:01:16.626Z,9.30
2017-10-17T12:03:46.394Z,14.13
2017-10-17T12:06:16.449Z,11.10
2017-10-17T12:08:46.465Z,15.57
2017-10-17T12:11:16.593Z,15.43
2017-10-17T12:13:46.529Z,11.93
2017-10-17T12:16:16.641Z,10.80
2017-10-17T12:18:46.653Z,19.53
2017-10-17T12:21:16.798Z,15.37
2017-10-17T12:23:46.695Z,9.73
2017-10-17T12:26:16.378Z,11.23
2017-10-17T12:28:46.481Z,11.43
2017-10-17T12:31:16.626Z,12.50
2017-10-17T12:33:46.184Z,13.87
2017-10-17T12:36:15.696Z,28.63
2017-10-17T12:38:45.296Z,17.33
2017-10-17T12:41:14.807Z,11.83
2017-10-17T12:43:44.327Z,10.30
2017-10-17T12:46:13.888Z,10.17
2017-10-17T12:48:43.433Z,16.93
2017-10-17T12:51:13.283Z,10.30
2017-10-17T12:53:43.298Z,10.03
2017-10-17T12:56:13.309Z,16.23
2017-10-17T12:58:43.322Z,17.90
2017-10-17T13:01:13.461Z,9.07
2017-10-17T13:03:43.469Z,13.17
2017-10-17T13:06:13.582Z,15.83
2017-10-17T13:08:43.613Z,13.07
2017-10-17T13:11:13.730Z,15.90
2017-10-17T13:13:43.746Z,13.90
2017-10-17T13:16:13.781Z,17.20
2017-10-17T13:18:43.801Z,9.90
2017-10-17T13:21:13.881Z,13.33
2017-10-17T13:23:43.905Z,9.70
2017-10-17T13:26:14.046Z,8.67
2017-10-17T13:28:44.033Z,12.50
2017-10-17T13:31:14.056Z,13.50
2017-10-17T13:33:44.193Z,12.30
2017-10-17T13:36:14.185Z,7.37
2017-10-17T13:38:44.209Z,9.43
2017-10-17T13:41:14.343Z,23.17
2017-10-17T13:43:44.378Z,10.23
2017-10-17T13:46:14.480Z,8.90
2017-10-17T13:48:44.499Z,11.07
2017-10-17T13:51:14.544Z,11.13
2017-10-17T13:53:44.528Z,11.30
2017-10-17T13:56:14.737Z,11.70
2017-10-17T13:58:44.680Z,17.30
2017-10-17T14:01:14.790Z,18.70
2017-10-17T14:03:44.812Z,10.67
2017-10-17T14:06:14.714Z,10.73
2017-10-17T14:08:44.802Z,8.47
2017-10-17T14:11:14.985Z,8.20
2017-10-17T14:13:45.025Z,9.10
2017-10-17T14:16:15.020Z,10.60
2017-10-17T14:18:45.026Z,14.27
2017-10-17T14:21:15.126Z,9.20
2017-10-17T14:23:45.184Z,11.33
2017-10-17T14:26:15.193Z,11.67
2017-10-17T14:28:45.301Z,14.63
2017-10-17T14:31:15.467Z,10.90
2017-10-17T14:33:45.506Z,15.07
2017-10-17T14:36:15.606Z,11.07
2017-10-17T14:38:58.643Z,10.90
2017-10-17T14:44:33.334Z,9.57
2017-10-17T14:47:03.809Z,7.07
2017-10-17T14:49:35.634Z,10.67
2017-10-17T14:52:07.125Z,8.87
2017-10-17T14:54:38.258Z,12.93
2017-10-17T14:57:09.463Z,13.47
2017-10-17T14:59:41.003Z,9.30
2017-10-17T15:02:10.623Z,20.93
2017-10-17T15:04:42.242Z,17.70
2017-10-17T15:07:14.192Z,12.97
2017-10-17T15:09:44.619Z,9.33
2017-10-17T15:12:15.052Z,19.63
2017-10-17T15:14:45.761Z,10.53
2017-10-17T15:17:17.014Z,9.93
2017-10-17T15:19:47.161Z,11.33
2017-10-17T15:22:17.543Z,13.57
2017-10-17T15:24:47.743Z,11.97
2017-10-17T15:27:17.923Z,13.57
2017-10-17T15:29:49.879Z,15.03
2017-10-17T15:32:19.387Z,12.20
2017-10-17T15:34:48.962Z,16.50
2017-10-17T15:37:18.485Z,16.30
2017-10-17T15:39:48.144Z,21.07
2017-10-17T15:42:18.144Z,16.40
2017-10-17T15:44:48.152Z,10.53
2017-10-17T15:47:18.205Z,13.43
2017-10-17T15:49:48.282Z,11.97
2017-10-17T15:52:18.416Z,15.47
2017-10-17T15:54:48.454Z,9.93
2017-10-17T15:57:18.645Z,14.10
2017-10-17T15:59:48.571Z,16.67
2017-10-17T16:02:18.590Z,22.33
2017-10-17T16:04:51.568Z,14.90
2017-10-17T16:07:21.101Z,12.13
2017-10-17T16:09:51.179Z,18.70
2017-10-17T16:12:21.157Z,18.23
2017-10-17T16:14:51.120Z,16.83
2017-10-17T16:17:20.645Z,20.23
2017-10-17T16:19:50.246Z,18.80
2017-10-17T16:22:19.814Z,16.07
2017-10-17T16:24:49.341Z,16.33
2017-10-17T16:27:19.082Z,15.77
2017-10-17T16:29:49.196Z,16.50
2017-10-17T16:32:19.311Z,15.43
2017-10-17T16:34:49.252Z,17.00
2017-10-17T16:37:19.322Z,16.47
2017-10-17T16:39:49.333Z,20.73
2017-10-17T16:42:19.098Z,14.33
2017-10-17T16:44:48.784Z,15.67
2017-10-17T16:47:18.910Z,12.73
2017-10-17T16:49:48.909Z,13.47
2017-10-17T16:52:18.925Z,16.67
2017-10-17T16:54:48.932Z,20.37
2017-10-17T16:57:19.042Z,18.07
2017-10-17T16:59:49.084Z,17.27
2017-10-17T17:02:19.557Z,19.07
2017-10-17T17:04:49.678Z,12.53
2017-10-17T17:07:19.684Z,16.93
2017-10-17T17:09:49.713Z,16.47
2017-10-17T17:12:19.376Z,19.50
2017-10-17T17:14:49.535Z,14.37
2017-10-17T17:17:19.518Z,17.50
2017-10-17T17:19:49.538Z,23.67
2017-10-17T17:22:19.642Z,18.33
2017-10-17T17:24:49.700Z,18.17
2017-10-17T17:27:19.697Z,19.37
2017-10-17T17:29:49.760Z,23.00
2017-10-17T17:32:19.944Z,17.47
2017-10-17T17:34:50.748Z,15.97
2017-10-17T17:37:21.268Z,19.67
2017-10-17T17:39:50.980Z,16.87
2017-10-17T17:42:22.429Z,14.30
2017-10-17T17:44:53.641Z,18.20
2017-10-17T17:47:24.714Z,14.67
2017-10-17T17:49:55.959Z,17.27
2017-10-17T17:52:27.763Z,16.93
2017-10-17T17:54:59.196Z,16.83
2017-10-17T17:57:31.915Z,17.77
2017-10-17T18:00:03.309Z,20.93
2017-10-17T18:02:34.576Z,17.93
2017-10-17T18:05:06.279Z,14.77
2017-10-17T18:07:37.879Z,21.80
2017-10-17T18:10:09.296Z,21.43
2017-10-17T18:12:41.313Z,19.23
2017-10-17T18:15:12.711Z,16.93
2017-10-17T18:17:44.196Z,17.40
2017-10-17T18:20:15.885Z,20.17
2017-10-17T18:22:47.511Z,16.00
2017-10-17T18:25:18.972Z,17.03
2017-10-17T18:27:50.367Z,22.90
2017-10-17T18:30:21.767Z,16.53
2017-10-17T18:32:53.703Z,21.00
2017-10-17T18:35:24.928Z,23.67
2017-10-17T18:37:56.168Z,17.20
2017-10-17T18:40:28.044Z,17.20
2017-10-17T18:42:59.201Z,22.53
2017-10-17T18:45:30.383Z,19.90
2017-10-17T18:48:02.245Z,17.20
2017-10-17T18:50:34.194Z,17.47
2017-10-17T18:53:05.630Z,16.67
2017-10-17T18:55:37.434Z,18.40
2017-10-17T18:58:09.116Z,22.10
2017-10-17T19:00:40.662Z,18.10
2017-10-17T19:03:12.458Z,20.70
2017-10-17T19:05:44.438Z,20.13
2017-10-17T19:08:16.003Z,19.57
2017-10-17T19:10:47.595Z,26.33
2017-10-17T19:13:19.801Z,21.87
2017-10-17T19:15:51.456Z,33.60
2017-10-17T19:18:23.028Z,25.77
2017-10-17T19:20:54.979Z,28.40
2017-10-17T19:23:28.048Z,18.27
2017-10-17T19:25:59.851Z,20.00
2017-10-17T19:28:31.585Z,21.27
2017-10-17T19:31:03.162Z,24.43
2017-10-17T19:33:35.020Z,22.53
2017-10-17T19:36:06.488Z,20.97
2017-10-17T19:38:38.080Z,18.03
2017-10-17T19:41:09.445Z,16.23
2017-10-17T19:43:41.252Z,19.33
2017-10-17T19:46:12.557Z,19.80
2017-10-17T19:48:44.509Z,24.53
2017-10-17T19:51:15.728Z,20.57
2017-10-17T19:53:47.142Z,24.53
2017-10-17T19:56:18.648Z,17.83
2017-10-17T19:58:50.571Z,19.10
2017-10-17T20:01:21.978Z,19.93
2017-10-17T20:03:53.727Z,22.87
2017-10-17T20:06:25.097Z,26.73
2017-10-17T20:08:56.649Z,25.33
2017-10-17T20:11:28.303Z,26.63
2017-10-17T20:14:00.059Z,20.90
2017-10-17T20:16:31.192Z,22.20
2017-10-17T20:19:02.505Z,19.97
2017-10-17T20:21:34.045Z,27.27
2017-10-17T20:24:05.416Z,19.83
2017-10-17T20:26:36.820Z,23.53
2017-10-17T20:29:09.171Z,21.43
2017-10-17T20:31:40.940Z,18.90
2017-10-17T20:34:12.628Z,25.73
2017-10-17T20:36:44.530Z,23.90
2017-10-17T20:39:16.529Z,28.93
2017-10-17T20:41:48.086Z,22.80
2017-10-17T20:44:19.952Z,23.93
2017-10-17T20:46:52.194Z,21.80
2017-10-17T20:49:24.777Z,19.57
2017-10-17T20:51:56.516Z,23.67
2017-10-17T20:54:28.227Z,22.67
2017-10-17T20:56:59.955Z,20.33
2017-10-17T20:59:32.026Z,22.63
2017-10-17T21:02:02.160Z,24.37
2017-10-17T21:04:31.834Z,22.90
2017-10-17T21:07:01.428Z,23.47
2017-10-17T21:09:30.963Z,20.83
2017-10-17T21:12:00.539Z,22.40
2017-10-17T21:14:30.585Z,23.47
2017-10-17T21:17:00.568Z,26.90
2017-10-17T21:19:30.583Z,27.03
2017-10-17T21:22:00.705Z,26.17
2017-10-17T21:24:30.703Z,23.03
2017-10-17T21:27:00.704Z,22.90
2017-10-17T21:29:30.720Z,25.03
2017-10-17T21:32:00.746Z,22.33
2017-10-17T21:34:30.763Z,23.43
2017-10-17T21:37:01.221Z,27.07
2017-10-17T21:39:31.063Z,22.33
2017-10-17T21:42:01.025Z,21.37
2017-10-17T21:44:31.019Z,22.27
2017-10-17T21:47:00.837Z,35.33
2017-10-17T21:49:30.872Z,32.80
2017-10-17T21:52:00.921Z,48.13
2017-10-17T21:54:31.033Z,55.40
2017-10-17T21:57:01.058Z,62.13
2017-10-17T21:59:31.065Z,61.33
2017-10-17T22:02:01.102Z,61.63
2017-10-17T22:04:31.199Z,69.87
2017-10-17T22:07:01.230Z,51.80
2017-10-17T22:09:31.345Z,50.43
2017-10-17T22:12:01.621Z,49.37
2017-10-17T22:14:31.385Z,42.77
2017-10-17T22:17:01.403Z,30.23
2017-10-17T22:19:31.549Z,45.63
2017-10-17T22:22:01.618Z,33.63
2017-10-17T22:24:31.649Z,41.83
2017-10-17T22:27:01.687Z,37.17
2017-10-17T22:29:31.692Z,40.90
2017-10-17T22:32:01.820Z,28.50
2017-10-17T22:34:31.923Z,29.00
2017-10-17T22:37:01.859Z,31.23
2017-10-17T22:39:31.974Z,25.50
2017-10-17T22:42:01.974Z,32.90
2017-10-17T22:44:32.013Z,33.40
2017-10-17T22:47:02.137Z,31.93
2017-10-17T22:49:32.219Z,34.77
2017-10-17T22:52:02.268Z,31.53
2017-10-17T22:54:32.315Z,30.23
2017-10-17T22:57:02.304Z,28.23
2017-10-17T22:59:32.321Z,30.23
2017-10-17T23:02:02.359Z,33.53
2017-10-17T23:04:32.462Z,26.73
2017-10-17T23:07:02.477Z,24.23
2017-10-17T23:09:32.554Z,27.03
2017-10-17T23:12:02.993Z,23.03
2017-10-17T23:14:33.006Z,23.90
2017-10-17T23:17:08.788Z,27.53
2017-10-17T23:19:44.250Z,23.20
2017-10-17T23:22:13.793Z,18.90
2017-10-17T23:24:43.360Z,20.80
2017-10-17T23:27:13.227Z,24.07
2017-10-17T23:29:42.978Z,20.70
2017-10-17T23:32:12.977Z,20.20
2017-10-17T23:34:43.016Z,22.67
2017-10-17T23:37:12.656Z,22.43
2017-10-17T23:39:42.751Z,21.70
2017-10-17T23:42:12.810Z,19.77
2017-10-17T23:44:42.472Z,20.47
2017-10-17T23:47:12.102Z,20.57
2017-10-17T23:49:41.635Z,17.77
2017-10-17T23:52:11.427Z,16.97
2017-10-17T23:54:40.970Z,17.07
2017-10-17T23:57:10.506Z,18.93
2017-10-17T23:59:40.029Z,23.73
